sensor_id;sensor_type;location;lat;lon;timestamp;pressure;altitude;pressure_sealevel;temperature;humidity
14790;BME280;7486;51.010;10.366;2022-09-25T00:00:57;97898.81;;;9.84;68.32
14790;BME280;7486;51.010;10.366;2022-09-25T00:03:26;97916.31;;;9.85;68.13
14790;BME280;7486;51.010;10.366;2022-09-25T00:06:00;97883.03;;;9.57;68.54
14790;BME280;7486;51.010;10.366;2022-09-25T00:08:27;97958.53;;;10.11;68.65
14790;BME280;7486;51.010;10.366;2022-09-25T00:10:54;97932.81;;;9.80;68.94
14790;BME280;7486;51.010;10.366;2022-09-25T00:13:21;97968.59;;;9.96;69.37
14790;BME280;7486;51.010;10.366;2022-09-25T00:15:51;97941.78;;;9.73;69.69
14790;BME280;7486;51.010;10.366;2022-09-25T00:18:19;97953.78;;;9.75;70.28
14790;BME280;7486;51.010;10.366;2022-09-25T00:20:46;97868.25;;;9.10;70.49
14790;BME280;7486;51.010;10.366;2022-09-25T00:23:12;97905.00;;;9.25;70.69
14790;BME280;7486;51.010;10.366;2022-09-25T00:25:39;97918.63;;;9.29;70.99
14790;BME280;7486;51.010;10.366;2022-09-25T00:28:06;97848.34;;;8.95;70.77
14790;BME280;7486;51.010;10.366;2022-09-25T00:30:32;97911.53;;;9.36;70.41
14790;BME280;7486;51.010;10.366;2022-09-25T00:32:59;97910.72;;;9.35;69.94
14790;BME280;7486;51.010;10.366;2022-09-25T00:35:26;97843.88;;;8.82;70.21
14790;BME280;7486;51.010;10.366;2022-09-25T00:37:52;97860.97;;;8.93;69.88
14790;BME280;7486;51.010;10.366;2022-09-25T00:40:19;97850.56;;;8.91;69.53
14790;BME280;7486;51.010;10.366;2022-09-25T00:42:46;97867.47;;;8.97;69.90
14790;BME280;7486;51.010;10.366;2022-09-25T00:45:18;97864.59;;;8.85;69.98
14790;BME280;7486;51.010;10.366;2022-09-25T00:47:58;97821.16;;;8.55;70.84
14790;BME280;7486;51.010;10.366;2022-09-25T00:50:31;97936.13;;;9.30;70.33
14790;BME280;7486;51.010;10.366;2022-09-25T00:53:04;97929.22;;;9.35;70.17
14790;BME280;7486;51.010;10.366;2022-09-25T00:55:33;97947.09;;;9.33;70.09
14790;BME280;7486;51.010;10.366;2022-09-25T00:58:02;97921.50;;;9.14;70.35
14790;BME280;7486;51.010;10.366;2022-09-25T01:00:31;97806.13;;;8.42;69.87
14790;BME280;7486;51.010;10.366;2022-09-25T01:02:58;97869.47;;;8.75;70.00
14790;BME280;7486;51.010;10.366;2022-09-25T01:05:28;97948.53;;;9.09;70.58
14790;BME280;7486;51.010;10.366;2022-09-25T01:07:59;97910.91;;;8.81;71.05
14790;BME280;7486;51.010;10.366;2022-09-25T01:10:27;97942.44;;;8.96;71.82
14790;BME280;7486;51.010;10.366;2022-09-25T01:12:54;97907.88;;;8.78;71.58
14790;BME280;7486;51.010;10.366;2022-09-25T01:15:44;97859.28;;;8.39;71.39
14790;BME280;7486;51.010;10.366;2022-09-25T01:27:19;97950.94;;;9.11;70.63
14790;BME280;7486;51.010;10.366;2022-09-25T01:30:06;97948.94;;;9.13;70.21
14790;BME280;7486;51.010;10.366;2022-09-25T01:32:46;97950.34;;;8.96;70.49
14790;BME280;7486;51.010;10.366;2022-09-25T01:35:18;97945.03;;;8.69;70.41
14790;BME280;7486;51.010;10.366;2022-09-25T01:40:38;97883.81;;;8.20;70.97
14790;BME280;7486;51.010;10.366;2022-09-25T01:43:12;97849.03;;;8.03;70.82
14790;BME280;7486;51.010;10.366;2022-09-25T01:45:55;97725.91;;;7.30;70.68
14790;BME280;7486;51.010;10.366;2022-09-25T01:48:25;97777.72;;;7.64;70.05
14790;BME280;7486;51.010;10.366;2022-09-25T01:51:06;97833.22;;;8.03;70.26
14790;BME280;7486;51.010;10.366;2022-09-25T01:53:43;97802.34;;;7.91;70.10
14790;BME280;7486;51.010;10.366;2022-09-25T01:56:19;97948.28;;;8.71;70.19
14790;BME280;7486;51.010;10.366;2022-09-25T01:58:57;97858.72;;;7.90;70.15
14790;BME280;7486;51.010;10.366;2022-09-25T02:01:29;97761.53;;;7.19;70.48
14790;BME280;7486;51.010;10.366;2022-09-25T02:04:09;97943.28;;;8.29;71.15
14790;BME280;7486;51.010;10.366;2022-09-25T02:06:42;97830.63;;;7.56;70.46
14790;BME280;7486;51.010;10.366;2022-09-25T02:09:33;97871.50;;;7.86;70.45
14790;BME280;7486;51.010;10.366;2022-09-25T02:12:30;97939.44;;;8.25;70.67
14790;BME280;7486;51.010;10.366;2022-09-25T02:14:57;97851.91;;;7.61;71.00
14790;BME280;7486;51.010;10.366;2022-09-25T02:17:36;97877.25;;;7.62;71.63
14790;BME280;7486;51.010;10.366;2022-09-25T02:20:07;97902.16;;;7.94;71.81
14790;BME280;7486;51.010;10.366;2022-09-25T02:22:34;97858.25;;;7.66;71.10
14790;BME280;7486;51.010;10.366;2022-09-25T02:25:12;97905.19;;;7.91;71.26
14790;BME280;7486;51.010;10.366;2022-09-25T02:27:41;97821.41;;;7.39;71.22
14790;BME280;7486;51.010;10.366;2022-09-25T02:30:08;97897.47;;;7.89;70.80
14790;BME280;7486;51.010;10.366;2022-09-25T02:32:35;97913.53;;;7.94;71.15
14790;BME280;7486;51.010;10.366;2022-09-25T02:35:03;97916.91;;;7.88;70.86
14790;BME280;7486;51.010;10.366;2022-09-25T02:37:29;97917.53;;;7.84;71.28
14790;BME280;7486;51.010;10.366;2022-09-25T02:39:58;97784.50;;;6.98;70.83
14790;BME280;7486;51.010;10.366;2022-09-25T02:43:03;97878.84;;;7.50;71.19
14790;BME280;7486;51.010;10.366;2022-09-25T02:48:45;97880.44;;;7.51;71.71
14790;BME280;7486;51.010;10.366;2022-09-25T02:51:28;97942.91;;;7.91;72.72
14790;BME280;7486;51.010;10.366;2022-09-25T02:54:15;97944.31;;;7.87;73.26
14790;BME280;7486;51.010;10.366;2022-09-25T02:57:02;97933.16;;;7.92;73.09
14790;BME280;7486;51.010;10.366;2022-09-25T02:59:38;97885.59;;;7.65;73.13
14790;BME280;7486;51.010;10.366;2022-09-25T03:02:09;97841.53;;;7.46;73.03
14790;BME280;7486;51.010;10.366;2022-09-25T03:04:37;97854.09;;;7.51;73.30
14790;BME280;7486;51.010;10.366;2022-09-25T03:07:06;97874.06;;;7.66;73.79
14790;BME280;7486;51.010;10.366;2022-09-25T03:09:34;97922.50;;;8.06;73.25
14790;BME280;7486;51.010;10.366;2022-09-25T03:12:03;97821.88;;;7.49;72.93
14790;BME280;7486;51.010;10.366;2022-09-25T03:14:30;97839.91;;;7.52;72.94
14790;BME280;7486;51.010;10.366;2022-09-25T03:16:59;97922.06;;;8.03;73.12
14790;BME280;7486;51.010;10.366;2022-09-25T03:19:28;97929.16;;;8.02;73.36
14790;BME280;7486;51.010;10.366;2022-09-25T03:21:55;97932.00;;;8.01;73.81
14790;BME280;7486;51.010;10.366;2022-09-25T03:24:22;97896.66;;;7.89;73.91
14790;BME280;7486;51.010;10.366;2022-09-25T03:26:49;97874.09;;;7.80;73.90
14790;BME280;7486;51.010;10.366;2022-09-25T03:29:16;97859.44;;;7.70;74.10
14790;BME280;7486;51.010;10.366;2022-09-25T03:31:43;97884.44;;;7.81;73.63
14790;BME280;7486;51.010;10.366;2022-09-25T03:34:34;97851.50;;;7.64;74.24
14790;BME280;7486;51.010;10.366;2022-09-25T03:37:01;97861.47;;;7.68;74.41
14790;BME280;7486;51.010;10.366;2022-09-25T03:39:27;97876.31;;;7.76;74.57
14790;BME280;7486;51.010;10.366;2022-09-25T03:41:54;97826.13;;;7.50;74.72
14790;BME280;7486;51.010;10.366;2022-09-25T03:44:21;97782.56;;;7.13;75.10
14790;BME280;7486;51.010;10.366;2022-09-25T03:46:47;97683.31;;;6.45;76.43
14790;BME280;7486;51.010;10.366;2022-09-25T03:49:14;97884.06;;;7.84;76.31
14790;BME280;7486;51.010;10.366;2022-09-25T03:51:41;97854.19;;;7.70;75.96
14790;BME280;7486;51.010;10.366;2022-09-25T03:54:08;97853.00;;;7.80;75.47
14790;BME280;7486;51.010;10.366;2022-09-25T03:56:34;97894.53;;;8.12;75.54
14790;BME280;7486;51.010;10.366;2022-09-25T03:59:01;97870.94;;;8.04;74.61
14790;BME280;7486;51.010;10.366;2022-09-25T04:01:28;97884.53;;;8.01;75.23
14790;BME280;7486;51.010;10.366;2022-09-25T04:03:55;97929.91;;;8.24;75.97
14790;BME280;7486;51.010;10.366;2022-09-25T04:06:24;97892.84;;;7.98;76.17
14790;BME280;7486;51.010;10.366;2022-09-25T04:08:52;97920.34;;;8.23;75.38
14790;BME280;7486;51.010;10.366;2022-09-25T04:11:20;97905.31;;;8.17;74.72
14790;BME280;7486;51.010;10.366;2022-09-25T04:13:47;97837.72;;;7.62;74.80
14790;BME280;7486;51.010;10.366;2022-09-25T04:16:15;97683.25;;;6.66;74.46
14790;BME280;7486;51.010;10.366;2022-09-25T04:18:43;97894.03;;;7.95;74.93
14790;BME280;7486;51.010;10.366;2022-09-25T04:21:12;97884.63;;;7.73;75.11
14790;BME280;7486;51.010;10.366;2022-09-25T04:23:40;97918.59;;;7.96;75.44
14790;BME280;7486;51.010;10.366;2022-09-25T04:26:07;97889.41;;;7.56;75.43
14790;BME280;7486;51.010;10.366;2022-09-25T04:28:34;97927.00;;;7.78;76.76
14790;BME280;7486;51.010;10.366;2022-09-25T04:31:01;97863.91;;;7.63;76.71
14790;BME280;7486;51.010;10.366;2022-09-25T04:33:28;97837.50;;;7.57;75.72
14790;BME280;7486;51.010;10.366;2022-09-25T04:35:55;97838.31;;;7.57;75.20
14790;BME280;7486;51.010;10.366;2022-09-25T04:38:22;97800.00;;;7.14;75.37
14790;BME280;7486;51.010;10.366;2022-09-25T04:40:48;97882.91;;;7.52;76.60
14790;BME280;7486;51.010;10.366;2022-09-25T04:43:15;97851.22;;;7.39;76.21
14790;BME280;7486;51.010;10.366;2022-09-25T04:45:42;97804.25;;;6.81;76.40
14790;BME280;7486;51.010;10.366;2022-09-25T04:48:09;97750.00;;;6.58;76.83
14790;BME280;7486;51.010;10.366;2022-09-25T04:50:35;97905.41;;;7.55;76.98
14790;BME280;7486;51.010;10.366;2022-09-25T04:53:02;97932.94;;;7.80;77.20
14790;BME280;7486;51.010;10.366;2022-09-25T04:55:29;97644.06;;;5.88;76.73
14790;BME280;7486;51.010;10.366;2022-09-25T04:57:58;97916.75;;;7.55;77.03
14790;BME280;7486;51.010;10.366;2022-09-25T05:00:30;97941.44;;;7.82;77.46
14790;BME280;7486;51.010;10.366;2022-09-25T05:02:57;97940.06;;;7.93;77.67
14790;BME280;7486;51.010;10.366;2022-09-25T05:05:24;97918.28;;;7.78;76.92
14790;BME280;7486;51.010;10.366;2022-09-25T05:07:55;97865.66;;;7.50;77.29
14790;BME280;7486;51.010;10.366;2022-09-25T05:10:24;97907.16;;;7.82;77.75
14790;BME280;7486;51.010;10.366;2022-09-25T05:13:02;97774.25;;;7.16;77.13
14790;BME280;7486;51.010;10.366;2022-09-25T05:15:31;97899.16;;;8.03;76.48
14790;BME280;7486;51.010;10.366;2022-09-25T05:18:05;97913.00;;;8.12;76.01
14790;BME280;7486;51.010;10.366;2022-09-25T05:20:36;97903.47;;;8.11;75.82
14790;BME280;7486;51.010;10.366;2022-09-25T05:23:03;97879.84;;;7.96;75.67
14790;BME280;7486;51.010;10.366;2022-09-25T05:25:30;97800.94;;;7.41;76.14
14790;BME280;7486;51.010;10.366;2022-09-25T05:27:58;97940.44;;;8.24;76.30
14790;BME280;7486;51.010;10.366;2022-09-25T05:30:28;97855.63;;;7.73;76.77
14790;BME280;7486;51.010;10.366;2022-09-25T05:32:55;97638.56;;;6.38;76.29
14790;BME280;7486;51.010;10.366;2022-09-25T05:35:22;97917.66;;;8.10;75.98
14790;BME280;7486;51.010;10.366;2022-09-25T05:37:49;97931.47;;;8.12;76.28
14790;BME280;7486;51.010;10.366;2022-09-25T05:40:18;97814.31;;;7.39;77.18
14790;BME280;7486;51.010;10.366;2022-09-25T05:42:45;97863.81;;;7.50;77.63
14790;BME280;7486;51.010;10.366;2022-09-25T05:45:14;97877.97;;;7.77;78.23
14790;BME280;7486;51.010;10.366;2022-09-25T05:47:41;97917.63;;;8.03;78.72
14790;BME280;7486;51.010;10.366;2022-09-25T05:50:10;97890.59;;;7.95;77.86
14790;BME280;7486;51.010;10.366;2022-09-25T05:52:38;97785.09;;;7.34;77.30
14790;BME280;7486;51.010;10.366;2022-09-25T05:55:05;97799.16;;;7.54;77.15
14790;BME280;7486;51.010;10.366;2022-09-25T05:57:33;97894.53;;;8.12;77.02
14790;BME280;7486;51.010;10.366;2022-09-25T06:00:03;97947.84;;;8.48;77.12
14790;BME280;7486;51.010;10.366;2022-09-25T06:02:37;97907.75;;;8.18;77.31
14790;BME280;7486;51.010;10.366;2022-09-25T06:05:04;97881.28;;;8.05;77.70
14790;BME280;7486;51.010;10.366;2022-09-25T06:07:31;97911.22;;;8.32;77.48
14790;BME280;7486;51.010;10.366;2022-09-25T06:09:57;97920.19;;;8.31;77.58
14790;BME280;7486;51.010;10.366;2022-09-25T06:12:24;97894.19;;;8.28;77.81
14790;BME280;7486;51.010;10.366;2022-09-25T06:14:51;97865.34;;;8.20;77.49
14790;BME280;7486;51.010;10.366;2022-09-25T06:17:18;97929.34;;;8.48;77.20
14790;BME280;7486;51.010;10.366;2022-09-25T06:19:45;97811.28;;;7.90;77.63
14790;BME280;7486;51.010;10.366;2022-09-25T06:22:12;97736.13;;;7.46;77.29
14790;BME280;7486;51.010;10.366;2022-09-25T06:24:39;97860.72;;;8.42;77.14
14790;BME280;7486;51.010;10.366;2022-09-25T06:27:07;97953.00;;;8.96;77.01
14790;BME280;7486;51.010;10.366;2022-09-25T06:29:34;97915.78;;;8.78;77.08
14790;BME280;7486;51.010;10.366;2022-09-25T06:32:02;97957.88;;;9.05;77.23
14790;BME280;7486;51.010;10.366;2022-09-25T06:34:29;97800.19;;;8.14;77.46
14790;BME280;7486;51.010;10.366;2022-09-25T06:36:55;97938.56;;;8.98;77.57
14790;BME280;7486;51.010;10.366;2022-09-25T06:39:22;97912.97;;;8.92;78.03
14790;BME280;7486;51.010;10.366;2022-09-25T06:41:51;97919.66;;;8.95;77.88
14790;BME280;7486;51.010;10.366;2022-09-25T06:44:20;97950.16;;;9.17;77.66
14790;BME280;7486;51.010;10.366;2022-09-25T06:46:50;97894.88;;;8.83;77.80
14790;BME280;7486;51.010;10.366;2022-09-25T06:49:17;97930.03;;;9.03;77.99
14790;BME280;7486;51.010;10.366;2022-09-25T06:51:43;97918.25;;;9.05;78.41
14790;BME280;7486;51.010;10.366;2022-09-25T06:54:10;97872.13;;;8.82;79.08
14790;BME280;7486;51.010;10.366;2022-09-25T06:56:38;97887.56;;;8.85;78.97
14790;BME280;7486;51.010;10.366;2022-09-25T06:59:04;97923.72;;;9.23;79.15
14790;BME280;7486;51.010;10.366;2022-09-25T07:01:31;97898.75;;;9.06;79.15
14790;BME280;7486;51.010;10.366;2022-09-25T07:03:58;97871.94;;;8.83;80.70
14790;BME280;7486;51.010;10.366;2022-09-25T07:06:25;97846.31;;;8.57;80.57
14790;BME280;7486;51.010;10.366;2022-09-25T07:08:52;97882.88;;;8.80;81.34
14790;BME280;7486;51.010;10.366;2022-09-25T07:11:20;97901.38;;;9.00;81.93
14790;BME280;7486;51.010;10.366;2022-09-25T07:13:48;97646.56;;;7.73;81.27
14790;BME280;7486;51.010;10.366;2022-09-25T07:16:17;97836.97;;;8.88;81.60
14790;BME280;7486;51.010;10.366;2022-09-25T07:18:45;97913.56;;;9.27;82.18
14790;BME280;7486;51.010;10.366;2022-09-25T07:21:19;97931.09;;;9.35;83.11
14790;BME280;7486;51.010;10.366;2022-09-25T07:23:47;97596.25;;;7.35;82.85
14790;BME280;7486;51.010;10.366;2022-09-25T07:26:18;97929.84;;;9.37;83.55
14790;BME280;7486;51.010;10.366;2022-09-25T07:28:45;97855.88;;;8.71;84.65
14790;BME280;7486;51.010;10.366;2022-09-25T07:31:21;97815.66;;;8.76;84.13
14790;BME280;7486;51.010;10.366;2022-09-25T07:33:48;97941.41;;;9.30;84.41
14790;BME280;7486;51.010;10.366;2022-09-25T07:36:16;97909.09;;;9.21;87.24
14790;BME280;7486;51.010;10.366;2022-09-25T07:38:43;97827.41;;;9.13;85.54
14790;BME280;7486;51.010;10.366;2022-09-25T07:41:10;97893.78;;;9.62;84.90
14790;BME280;7486;51.010;10.366;2022-09-25T07:43:38;97848.66;;;9.57;84.98
14790;BME280;7486;51.010;10.366;2022-09-25T07:46:05;97915.78;;;10.14;83.86
14790;BME280;7486;51.010;10.366;2022-09-25T07:48:33;97879.72;;;9.82;82.85
14790;BME280;7486;51.010;10.366;2022-09-25T07:51:01;97937.00;;;10.45;83.31
14790;BME280;7486;51.010;10.366;2022-09-25T07:53:30;97944.28;;;10.18;82.52
14790;BME280;7486;51.010;10.366;2022-09-25T07:56:01;97939.97;;;10.24;82.32
14790;BME280;7486;51.010;10.366;2022-09-25T07:58:33;97942.31;;;10.45;82.48
14790;BME280;7486;51.010;10.366;2022-09-25T08:01:01;97905.19;;;10.14;80.24
14790;BME280;7486;51.010;10.366;2022-09-25T08:03:29;97938.38;;;10.23;83.38
14790;BME280;7486;51.010;10.366;2022-09-25T08:06:03;97936.81;;;10.47;82.39
14790;BME280;7486;51.010;10.366;2022-09-25T08:08:31;97887.06;;;10.17;80.57
14790;BME280;7486;51.010;10.366;2022-09-25T08:10:59;97939.97;;;10.68;81.82
14790;BME280;7486;51.010;10.366;2022-09-25T08:13:28;97706.78;;;9.32;81.04
14790;BME280;7486;51.010;10.366;2022-09-25T08:15:56;97896.72;;;10.43;79.47
14790;BME280;7486;51.010;10.366;2022-09-25T08:18:23;97931.97;;;9.93;81.99
14790;BME280;7486;51.010;10.366;2022-09-25T08:20:50;97915.63;;;10.09;82.88
14790;BME280;7486;51.010;10.366;2022-09-25T08:23:17;97949.03;;;10.54;82.36
14790;BME280;7486;51.010;10.366;2022-09-25T08:25:48;97939.75;;;10.70;79.78
14790;BME280;7486;51.010;10.366;2022-09-25T08:28:15;97884.69;;;10.47;80.06
14790;BME280;7486;51.010;10.366;2022-09-25T08:30:42;97888.91;;;10.61;79.23
14790;BME280;7486;51.010;10.366;2022-09-25T08:33:12;97667.13;;;8.94;79.07
14790;BME280;7486;51.010;10.366;2022-09-25T08:35:42;97779.97;;;9.89;79.25
14790;BME280;7486;51.010;10.366;2022-09-25T08:38:09;97898.16;;;10.77;79.14
14790;BME280;7486;51.010;10.366;2022-09-25T08:43:22;97927.00;;;10.92;77.23
14790;BME280;7486;51.010;10.366;2022-09-25T08:45:50;97929.53;;;11.05;76.20
14790;BME280;7486;51.010;10.366;2022-09-25T08:49:02;97930.84;;;10.96;77.40
14790;BME280;7486;51.010;10.366;2022-09-25T08:51:31;97896.53;;;10.76;77.74
14790;BME280;7486;51.010;10.366;2022-09-25T08:54:02;97861.09;;;10.39;77.92
14790;BME280;7486;51.010;10.366;2022-09-25T08:56:37;97870.38;;;10.55;78.72
14790;BME280;7486;51.010;10.366;2022-09-25T08:59:13;97932.63;;;11.27;76.29
14790;BME280;7486;51.010;10.366;2022-09-25T09:01:43;97928.13;;;11.27;77.12
14790;BME280;7486;51.010;10.366;2022-09-25T09:04:20;97860.00;;;10.53;77.66
14790;BME280;7486;51.010;10.366;2022-09-25T09:06:53;97871.19;;;10.55;78.74
14790;BME280;7486;51.010;10.366;2022-09-25T09:10:08;97928.88;;;11.34;78.09
14790;BME280;7486;51.010;10.366;2022-09-25T09:12:45;97838.53;;;10.68;76.89
14790;BME280;7486;51.010;10.366;2022-09-25T09:15:42;97883.28;;;11.01;76.40
14790;BME280;7486;51.010;10.366;2022-09-25T09:18:28;97933.75;;;11.62;74.99
14790;BME280;7486;51.010;10.366;2022-09-25T09:21:07;97898.72;;;11.53;76.09
14790;BME280;7486;51.010;10.366;2022-09-25T09:29:27;97927.19;;;11.83;73.03
14790;BME280;7486;51.010;10.366;2022-09-25T09:32:14;97923.84;;;11.26;75.42
14790;BME280;7486;51.010;10.366;2022-09-25T09:35:00;97916.50;;;11.28;77.61
14790;BME280;7486;51.010;10.366;2022-09-25T09:43:00;97921.53;;;12.15;72.62
14790;BME280;7486;51.010;10.366;2022-09-25T09:45:42;97870.22;;;11.85;70.22
14790;BME280;7486;51.010;10.366;2022-09-25T09:48:31;97862.28;;;11.67;72.46
14790;BME280;7486;51.010;10.366;2022-09-25T09:51:15;97856.28;;;11.53;72.83
14790;BME280;7486;51.010;10.366;2022-09-25T09:53:58;97904.97;;;12.13;70.50
14790;BME280;7486;51.010;10.366;2022-09-25T09:56:31;97914.78;;;12.13;72.04
14790;BME280;7486;51.010;10.366;2022-09-25T09:59:09;97916.50;;;12.26;71.79
14790;BME280;7486;51.010;10.366;2022-09-25T10:01:39;97880.31;;;11.58;72.55
14790;BME280;7486;51.010;10.366;2022-09-25T10:04:23;97913.03;;;12.07;74.25
14790;BME280;7486;51.010;10.366;2022-09-25T10:06:58;97811.72;;;11.62;73.72
14790;BME280;7486;51.010;10.366;2022-09-25T10:09:27;97913.75;;;12.32;70.45
14790;BME280;7486;51.010;10.366;2022-09-25T10:12:05;97886.03;;;12.10;71.60
14790;BME280;7486;51.010;10.366;2022-09-25T10:14:38;97912.03;;;12.38;70.63
14790;BME280;7486;51.010;10.366;2022-09-25T10:17:07;97790.63;;;11.49;70.33
14790;BME280;7486;51.010;10.366;2022-09-25T10:19:57;97898.78;;;12.19;70.48
14790;BME280;7486;51.010;10.366;2022-09-25T10:22:35;97687.19;;;11.01;71.98
14790;BME280;7486;51.010;10.366;2022-09-25T10:25:03;97561.66;;;10.29;69.83
14790;BME280;7486;51.010;10.366;2022-09-25T10:27:37;97906.69;;;12.08;71.68
14790;BME280;7486;51.010;10.366;2022-09-25T10:35:28;97830.47;;;12.68;66.62
14790;BME280;7486;51.010;10.366;2022-09-25T10:37:59;97853.50;;;12.86;66.52
14790;BME280;7486;51.010;10.366;2022-09-25T10:40:33;97888.66;;;12.99;66.12
14790;BME280;7486;51.010;10.366;2022-09-25T10:43:03;97894.44;;;13.19;65.26
14790;BME280;7486;51.010;10.366;2022-09-25T10:45:33;97867.81;;;12.73;68.12
14790;BME280;7486;51.010;10.366;2022-09-25T10:48:01;97896.19;;;13.25;66.48
14790;BME280;7486;51.010;10.366;2022-09-25T10:51:07;97882.66;;;13.15;66.66
14790;BME280;7486;51.010;10.366;2022-09-25T10:53:35;97896.06;;;13.09;65.65
14790;BME280;7486;51.010;10.366;2022-09-25T10:56:07;97896.44;;;13.47;65.80
14790;BME280;7486;51.010;10.366;2022-09-25T10:58:39;97879.56;;;13.65;63.61
14790;BME280;7486;51.010;10.366;2022-09-25T11:01:08;97813.97;;;13.12;64.09
14790;BME280;7486;51.010;10.366;2022-09-25T11:06:21;97859.88;;;13.66;64.27
14790;BME280;7486;51.010;10.366;2022-09-25T11:09:15;97831.41;;;13.66;63.21
14790;BME280;7486;51.010;10.366;2022-09-25T11:11:40;97812.34;;;13.58;60.55
14790;BME280;7486;51.010;10.366;2022-09-25T11:14:16;97621.84;;;11.84;63.23
14790;BME280;7486;51.010;10.366;2022-09-25T11:16:51;97883.72;;;13.38;63.65
14790;BME280;7486;51.010;10.366;2022-09-25T11:19:29;97883.28;;;13.52;63.52
14790;BME280;7486;51.010;10.366;2022-09-25T11:22:14;97876.53;;;13.61;61.93
14790;BME280;7486;51.010;10.366;2022-09-25T11:24:50;97834.78;;;13.27;62.79
14790;BME280;7486;51.010;10.366;2022-09-25T11:27:41;97827.28;;;13.24;63.19
14790;BME280;7486;51.010;10.366;2022-09-25T11:30:11;97880.00;;;13.27;64.05
14790;BME280;7486;51.010;10.366;2022-09-25T11:40:58;97860.41;;;12.75;65.17
14790;BME280;7486;51.010;10.366;2022-09-25T11:43:50;97854.38;;;12.56;65.56
14790;BME280;7486;51.010;10.366;2022-09-25T11:46:39;97884.84;;;12.84;65.59
14790;BME280;7486;51.010;10.366;2022-09-25T11:49:27;97822.31;;;11.62;69.15
14790;BME280;7486;51.010;10.366;2022-09-25T11:52:16;97883.91;;;12.00;68.77
14790;BME280;7486;51.010;10.366;2022-09-25T12:03:49;97873.75;;;11.18;71.57
14790;BME280;7486;51.010;10.366;2022-09-25T12:23:28;97859.78;;;11.29;71.44
14790;BME280;7486;51.010;10.366;2022-09-25T12:26:15;97868.72;;;11.53;71.48
14790;BME280;7486;51.010;10.366;2022-09-25T12:29:18;97865.53;;;11.26;71.09
14790;BME280;7486;51.010;10.366;2022-09-25T12:37:39;97868.72;;;11.10;72.41
14790;BME280;7486;51.010;10.366;2022-09-25T12:43:26;97863.97;;;11.18;71.49
14790;BME280;7486;51.010;10.366;2022-09-25T12:51:41;97850.16;;;11.53;71.09
14790;BME280;7486;51.010;10.366;2022-09-25T12:57:02;97791.78;;;11.16;69.82
14790;BME280;7486;51.010;10.366;2022-09-25T13:02:34;97848.78;;;11.68;68.63
14790;BME280;7486;51.010;10.366;2022-09-25T13:05:26;97846.56;;;11.65;68.86
14790;BME280;7486;51.010;10.366;2022-09-25T13:08:17;97857.56;;;11.44;68.95
14790;BME280;7486;51.010;10.366;2022-09-25T13:14:29;97785.88;;;10.53;70.63
14790;BME280;7486;51.010;10.366;2022-09-25T13:16:57;97823.34;;;11.00;70.39
14790;BME280;7486;51.010;10.366;2022-09-25T13:19:26;97792.88;;;10.91;70.02
14790;BME280;7486;51.010;10.366;2022-09-25T13:21:58;97812.06;;;10.86;70.74
14790;BME280;7486;51.010;10.366;2022-09-25T13:24:26;97665.91;;;9.79;70.61
14790;BME280;7486;51.010;10.366;2022-09-25T13:26:54;97850.09;;;10.98;71.36
14790;BME280;7486;51.010;10.366;2022-09-25T13:29:42;97769.41;;;10.51;71.18
14790;BME280;7486;51.010;10.366;2022-09-25T13:32:17;97841.75;;;10.95;70.39
14790;BME280;7486;51.010;10.366;2022-09-25T13:34:45;97840.75;;;10.71;72.12
14790;BME280;7486;51.010;10.366;2022-09-25T13:37:14;97720.81;;;9.77;72.04
14790;BME280;7486;51.010;10.366;2022-09-25T14:00:22;97796.47;;;10.96;67.68
14790;BME280;7486;51.010;10.366;2022-09-25T14:02:49;97793.94;;;11.08;66.90
14790;BME280;7486;51.010;10.366;2022-09-25T14:05:18;97750.31;;;10.67;67.61
14790;BME280;7486;51.010;10.366;2022-09-25T14:07:49;97819.47;;;11.20;68.64
14790;BME280;7486;51.010;10.366;2022-09-25T14:10:18;97817.06;;;11.19;68.02
14790;BME280;7486;51.010;10.366;2022-09-25T14:12:46;97624.81;;;9.76;68.31
14790;BME280;7486;51.010;10.366;2022-09-25T14:15:25;97818.97;;;11.30;69.24
14790;BME280;7486;51.010;10.366;2022-09-25T14:17:56;97715.56;;;10.76;66.55
14790;BME280;7486;51.010;10.366;2022-09-25T14:20:33;97819.72;;;11.37;67.09
14790;BME280;7486;51.010;10.366;2022-09-25T14:23:12;97818.63;;;11.27;66.28
14790;BME280;7486;51.010;10.366;2022-09-25T14:25:39;97708.25;;;10.78;67.02
14790;BME280;7486;51.010;10.366;2022-09-25T14:28:25;97815.56;;;11.66;66.85
14790;BME280;7486;51.010;10.366;2022-09-25T14:34:33;97814.94;;;11.28;65.49
14790;BME280;7486;51.010;10.366;2022-09-25T14:46:05;97814.00;;;11.40;66.50
14790;BME280;7486;51.010;10.366;2022-09-25T14:48:45;97672.78;;;10.79;67.36
14790;BME280;7486;51.010;10.366;2022-09-25T14:51:19;97809.81;;;11.99;66.17
14790;BME280;7486;51.010;10.366;2022-09-25T14:54:00;97767.06;;;11.77;65.30
14790;BME280;7486;51.010;10.366;2022-09-25T14:56:30;97817.44;;;12.25;64.67
14790;BME280;7486;51.010;10.366;2022-09-25T14:58:59;97753.91;;;11.82;63.94
14790;BME280;7486;51.010;10.366;2022-09-25T15:01:31;97744.47;;;11.56;64.44
14790;BME280;7486;51.010;10.366;2022-09-25T15:04:01;97777.34;;;11.85;62.80
14790;BME280;7486;51.010;10.366;2022-09-25T15:06:35;97806.97;;;11.82;65.24
14790;BME280;7486;51.010;10.366;2022-09-25T15:09:27;97790.84;;;11.65;65.36
14790;BME280;7486;51.010;10.366;2022-09-25T15:11:54;97790.38;;;11.87;64.72
14790;BME280;7486;51.010;10.366;2022-09-25T15:14:21;97740.78;;;11.57;63.70
14790;BME280;7486;51.010;10.366;2022-09-25T15:16:48;97778.09;;;12.04;64.40
14790;BME280;7486;51.010;10.366;2022-09-25T15:19:20;97814.16;;;12.23;63.29
14790;BME280;7486;51.010;10.366;2022-09-25T15:21:48;97673.94;;;11.67;63.07
14790;BME280;7486;51.010;10.366;2022-09-25T15:24:20;97758.75;;;11.55;62.83
14790;BME280;7486;51.010;10.366;2022-09-25T15:26:50;97741.34;;;11.41;64.33
14790;BME280;7486;51.010;10.366;2022-09-25T15:29:22;97777.56;;;11.84;64.51
14790;BME280;7486;51.010;10.366;2022-09-25T15:31:50;97760.13;;;11.58;63.08
14790;BME280;7486;51.010;10.366;2022-09-25T15:34:23;97785.47;;;11.72;64.64
14790;BME280;7486;51.010;10.366;2022-09-25T15:36:51;97805.28;;;11.88;64.44
14790;BME280;7486;51.010;10.366;2022-09-25T15:39:25;97795.41;;;11.95;64.44
14790;BME280;7486;51.010;10.366;2022-09-25T15:41:52;97682.38;;;11.28;63.06